createdAt,value
2018-09-27T00:05:11.576Z,21.6
2018-09-27T00:15:13.777Z,21.6
2018-09-27T00:25:16.233Z,21.5
2018-09-27T00:35:18.051Z,21.5
2018-09-27T00:45:19.793Z,21.5
2018-09-27T00:55:22.450Z,21.5
2018-09-27T01:05:24.159Z,21.5
2018-09-27T01:15:25.729Z,21.5
2018-09-27T01:25:27.594Z,21.4
2018-09-27T01:35:29.615Z,21.4
2018-09-27T01:45:31.680Z,21.4
2018-09-27T01:55:33.909Z,21.4
2018-09-27T02:05:36.022Z,21.4
2018-09-27T02:15:37.831Z,21.3
2018-09-27T02:25:39.677Z,21.3
2018-09-27T02:35:41.236Z,21.3
2018-09-27T02:45:42.809Z,21.3
2018-09-27T02:55:45.475Z,21.2
2018-09-27T03:05:47.536Z,21.2
2018-09-27T03:15:49.131Z,21.2
2018-09-27T03:25:50.938Z,21.2
2018-09-27T03:35:52.705Z,21.2
2018-09-27T03:45:54.369Z,21.2
2018-09-27T03:55:56.237Z,21.2
2018-09-27T04:05:58.000Z,21.2
2018-09-27T04:16:00.110Z,21.2
2018-09-27T04:26:01.983Z,21.2
2018-09-27T04:36:03.981Z,21.2
2018-09-27T04:46:05.368Z,21.2
2018-09-27T04:56:06.868Z,21.2
2018-09-27T05:06:08.564Z,21.2
2018-09-27T05:16:10.038Z,21.3
2018-09-27T05:26:12.662Z,21.4
2018-09-27T05:36:14.764Z,21.4
2018-09-27T05:46:16.814Z,21.5
2018-09-27T05:56:18.507Z,21.5
2018-09-27T06:06:20.284Z,21.6
2018-09-27T06:16:21.706Z,21.3
2018-09-27T06:26:23.589Z,21.1
2018-09-27T06:36:26.090Z,21.1
2018-09-27T06:46:28.157Z,21.7
2018-09-27T06:56:31.064Z,22
2018-09-27T07:06:32.964Z,22.3
2018-09-27T07:16:34.571Z,22.5
2018-09-27T07:26:36.271Z,22.7
2018-09-27T07:36:38.160Z,22.8
2018-09-27T07:46:39.859Z,22.9
2018-09-27T07:56:41.877Z,23
2018-09-27T08:06:44.296Z,23.1
2018-09-27T08:16:46.631Z,23
2018-09-27T08:26:48.601Z,23.2
2018-09-27T08:36:50.482Z,23.2
2018-09-27T08:46:52.634Z,23.2
2018-09-27T08:56:54.278Z,23.3
2018-09-27T09:06:55.992Z,23.3
2018-09-27T09:16:57.351Z,23.3
2018-09-27T09:27:00.036Z,23.3
2018-09-27T09:37:01.632Z,23.2
2018-09-27T09:47:03.497Z,23.1
2018-09-27T09:57:05.070Z,23.1
2018-09-27T10:07:06.367Z,23.2
2018-09-27T10:17:07.757Z,23.3
2018-09-27T10:27:09.501Z,23.4
2018-09-27T10:37:11.528Z,23.4
2018-09-27T10:47:13.722Z,23.5
2018-09-27T10:57:15.682Z,23.5
2018-09-27T11:07:17.772Z,23.6
2018-09-27T11:17:19.668Z,23.6
2018-09-27T11:27:21.796Z,23.6
2018-09-27T11:37:24.058Z,23.6
2018-09-27T11:47:26.604Z,23.7
2018-09-27T11:57:28.992Z,23.6
2018-09-27T12:07:31.075Z,23.8
2018-09-27T12:17:32.967Z,23.8
2018-09-27T12:27:34.671Z,23.9
2018-09-27T12:37:36.782Z,24
2018-09-27T12:47:38.704Z,24
2018-09-27T12:57:41.068Z,24
2018-09-27T13:07:42.842Z,24
2018-09-27T13:17:44.841Z,24
2018-09-27T13:27:46.668Z,24.1
2018-09-27T13:37:48.808Z,24
2018-09-27T13:47:50.578Z,24
2018-09-27T13:57:52.662Z,24.1
2018-09-27T14:07:54.488Z,24.3
2018-09-27T14:17:56.727Z,24.4
2018-09-27T14:27:58.920Z,24.5
2018-09-27T14:38:00.648Z,24.4
2018-09-27T14:48:02.230Z,24.2
2018-09-27T14:58:04.494Z,24.3
2018-09-27T15:08:06.613Z,24.5
2018-09-27T15:18:08.664Z,24.4
2018-09-27T15:28:10.383Z,24.4
2018-09-27T15:38:12.202Z,24.4
2018-09-27T15:48:13.872Z,24.3
2018-09-27T15:58:15.483Z,24.3
2018-09-27T16:08:17.051Z,24.4
2018-09-27T16:18:19.009Z,24.3
2018-09-27T16:28:20.903Z,24.4
2018-09-27T16:38:22.895Z,24.4
2018-09-27T16:48:25.371Z,24.4
2018-09-27T16:58:27.153Z,24.5
2018-09-27T17:08:29.625Z,24.5
2018-09-27T17:18:31.297Z,24.5
2018-09-27T17:28:33.203Z,24.4
2018-09-27T17:38:34.936Z,24.5
2018-09-27T17:48:36.701Z,24.4
2018-09-27T17:58:38.666Z,24.5
2018-09-27T18:08:40.556Z,24.5
2018-09-27T18:18:42.564Z,24.5
2018-09-27T18:28:44.761Z,24.7
2018-09-27T18:38:48.403Z,24.7
2018-09-27T18:48:49.886Z,24.7
2018-09-27T18:58:51.640Z,24.6
2018-09-27T19:08:53.673Z,24.5
2018-09-27T19:18:55.666Z,24.4
2018-09-27T19:28:57.413Z,24.3
2018-09-27T19:38:59.240Z,24.2
2018-09-27T19:49:01.258Z,24
2018-09-27T19:59:03.002Z,23.7
2018-09-27T20:09:04.600Z,23.6
2018-09-27T20:19:06.181Z,23.5
2018-09-27T20:29:07.664Z,23.4
2018-09-27T20:39:09.287Z,23.3
2018-09-27T20:49:10.956Z,23.2
2018-09-27T20:59:12.869Z,23.1
2018-09-27T21:09:15.123Z,23
2018-09-27T21:19:17.337Z,23
2018-09-27T21:29:19.063Z,23
2018-09-27T21:39:21.475Z,22.9
2018-09-27T21:49:23.423Z,22.8
2018-09-27T21:59:25.044Z,22.6
2018-09-27T22:09:27.055Z,22.6
2018-09-27T22:19:29.067Z,22.5
2018-09-27T22:29:30.774Z,22.4
2018-09-27T22:39:32.863Z,22.4
2018-09-27T22:49:34.836Z,22.3
2018-09-27T22:59:36.819Z,22.3
2018-09-27T23:09:39.049Z,22.2
2018-09-27T23:19:40.731Z,22.2
2018-09-27T23:29:42.513Z,22.1
2018-09-27T23:39:44.096Z,22.1
2018-09-27T23:49:45.912Z,22
2018-09-27T23:59:48.546Z,22
